createdAt,value
2023-02-24T00:03:59.744Z,67.57
2023-02-24T00:14:26.572Z,67.25
2023-02-24T00:24:53.349Z,67.21
2023-02-24T00:35:17.844Z,67.46
2023-02-24T00:45:42.821Z,67.25
2023-02-24T00:56:11.469Z,66.91
2023-02-24T01:06:34.750Z,67.04
2023-02-24T01:17:00.684Z,67.32
2023-02-24T01:27:25.666Z,67.71
2023-02-24T01:37:49.951Z,67.60
2023-02-24T01:48:16.694Z,67.09
2023-02-24T01:58:42.086Z,66.85
2023-02-24T02:09:07.459Z,66.91
2023-02-24T02:20:15.389Z,67.01
2023-02-24T02:31:13.051Z,67.25
2023-02-24T02:41:47.239Z,67.12
2023-02-24T02:52:17.188Z,67.26
2023-02-24T03:02:47.351Z,67.32
2023-02-24T03:13:15.830Z,67.57
2023-02-24T03:23:46.039Z,67.54
2023-02-24T03:34:15.301Z,68.01
2023-02-24T03:44:40.544Z,68.36
2023-02-24T03:55:20.959Z,69.16
2023-02-24T04:05:52.867Z,69.87
2023-02-24T04:16:27.381Z,70.47
2023-02-24T04:26:54.085Z,71.39
2023-02-24T04:37:22.494Z,71.97
2023-02-24T04:47:48.914Z,72.65
2023-02-24T04:58:18.588Z,72.40
2023-02-24T05:08:43.340Z,71.96
2023-02-24T05:19:25.806Z,72.10
2023-02-24T05:29:50.029Z,72.60
2023-02-24T05:40:14.990Z,73.27
2023-02-24T05:50:39.825Z,73.93
2023-02-24T06:01:15.532Z,74.59
2023-02-24T06:11:41.606Z,74.71
2023-02-24T06:22:10.294Z,74.77
2023-02-24T06:32:35.628Z,74.44
2023-02-24T06:42:59.949Z,74.34
2023-02-24T06:53:26.060Z,74.01
2023-02-24T07:04:03.051Z,74.32
2023-02-24T07:14:29.997Z,74.36
2023-02-24T07:24:59.784Z,74.49
2023-02-24T07:35:24.064Z,74.37
2023-02-24T07:45:48.370Z,74.43
2023-02-24T07:56:17.099Z,74.45
2023-02-24T08:06:45.406Z,74.60
2023-02-24T08:17:22.368Z,74.97
2023-02-24T08:28:06.412Z,75.10
2023-02-24T08:38:41.354Z,75.18
2023-02-24T08:49:10.198Z,75.68
2023-02-24T08:59:42.821Z,75.31
2023-02-24T09:10:11.920Z,75.32
2023-02-24T09:20:50.890Z,74.93
2023-02-24T09:31:16.795Z,74.55
2023-02-24T09:41:56.570Z,74.56
2023-02-24T09:52:21.014Z,74.55
2023-02-24T10:02:59.473Z,74.67
2023-02-24T10:13:31.884Z,74.46
2023-02-24T10:24:08.887Z,74.08
2023-02-24T10:34:33.548Z,74.11
2023-02-24T10:45:17.284Z,73.93
2023-02-24T10:56:01.531Z,74.00
2023-02-24T11:06:51.933Z,73.33
2023-02-24T11:17:26.325Z,71.86
2023-02-24T11:27:51.685Z,71.82
2023-02-24T11:38:27.440Z,71.62
2023-02-24T11:48:56.382Z,71.50
2023-02-24T11:59:30.380Z,71.08
2023-02-24T12:10:14.020Z,70.85
2023-02-24T12:20:45.618Z,70.85
2023-02-24T12:31:23.346Z,71.19
2023-02-24T12:41:59.926Z,71.79
2023-02-24T12:52:34.378Z,72.17
2023-02-24T13:03:10.132Z,72.45
2023-02-24T13:13:44.264Z,72.56
2023-02-24T13:24:22.743Z,72.96
2023-02-24T13:34:46.995Z,72.93
2023-02-24T13:45:20.749Z,72.59
2023-02-24T13:56:01.782Z,72.38
2023-02-24T14:06:27.474Z,72.27
2023-02-24T14:16:52.088Z,72.78
2023-02-24T14:27:24.431Z,73.00
2023-02-24T14:37:48.973Z,73.11
2023-02-24T14:48:23.205Z,73.09
2023-02-24T14:58:51.711Z,72.72
2023-02-24T15:09:20.460Z,72.58
2023-02-24T15:19:46.599Z,72.17
2023-02-24T15:30:28.355Z,71.75
2023-02-24T15:40:54.529Z,71.47
2023-02-24T15:51:26.886Z,71.35
2023-02-24T16:01:51.292Z,71.57
2023-02-24T16:12:21.772Z,71.97
2023-02-24T16:22:46.147Z,72.33
2023-02-24T16:33:13.409Z,72.61
2023-02-24T16:43:37.819Z,72.86
2023-02-24T16:54:03.020Z,73.34
2023-02-24T17:04:27.269Z,73.30
2023-02-24T17:14:51.828Z,73.37
2023-02-24T17:25:18.367Z,73.53
2023-02-24T17:35:43.164Z,73.62
2023-02-24T17:46:08.220Z,73.00
2023-02-24T17:56:33.335Z,72.90
2023-02-24T18:06:57.805Z,72.60
2023-02-24T18:17:22.591Z,72.54
2023-02-24T18:27:47.202Z,72.58
2023-02-24T18:38:11.422Z,72.06
2023-02-24T18:48:35.916Z,71.75
2023-02-24T18:59:01.955Z,71.09
2023-02-24T19:09:27.046Z,71.04
2023-02-24T19:19:53.115Z,71.02
2023-02-24T19:30:18.355Z,70.32
2023-02-24T19:40:43.296Z,70.10
2023-02-24T19:51:18.626Z,70.15
2023-02-24T20:01:42.910Z,70.12
2023-02-24T20:12:07.328Z,70.40
2023-02-24T20:22:31.528Z,70.52
2023-02-24T20:32:59.096Z,70.45
2023-02-24T20:43:24.450Z,70.05
2023-02-24T20:53:57.241Z,69.83
2023-02-24T21:04:26.314Z,69.75
2023-02-24T21:14:50.570Z,69.57
2023-02-24T21:25:14.817Z,70.12
2023-02-24T21:35:39.103Z,70.53
2023-02-24T21:46:04.856Z,71.10
2023-02-24T21:56:30.330Z,71.91
2023-02-24T22:06:54.544Z,72.41
2023-02-24T22:17:18.752Z,73.08
2023-02-24T22:27:43.122Z,73.42
2023-02-24T22:38:07.323Z,73.54
2023-02-24T22:48:33.327Z,73.52
2023-02-24T22:58:58.392Z,72.98
2023-02-24T23:09:22.581Z,72.52
2023-02-24T23:19:46.770Z,72.31
2023-02-24T23:30:12.548Z,71.89
2023-02-24T23:40:49.509Z,71.72
2023-02-24T23:51:16.716Z,71.47
